Terminal Aerodrome Forecast
Issued by NWS

Home | Current Version | Previous Version | Text Only | Print | Product List | Glossary On
Versions: 1 2 3 4 5 6 7 8 9 10 11 12 13 14 15 16 17 18 19 20 21 22 23 24 25 26 27 28 29 30
000
FTUS44 KHGX 051324 AAA
TAFLBX
TAF AMD
KLBX 051324Z 0513/0612 12006KT P6SM VCSH FEW019 BKN026 OVC040
     FM051500 14013KT P6SM VCTS SCT025 BKN035CB
      TEMPO 0516/0520 5SM TSRA BKN015CB
     FM052100 14013KT P6SM VCSH SCT035
     FM060200 13010KT P6SM SCT030
     FM060400 13009KT P6SM SCT015 BKN025=

USA.gov is the U.S. government's official web portal to all federal, state and local government web resources and services.